sensor_id;sensor_type;location;lat;lon;timestamp;P1;durP1;ratioP1;P2;durP2;ratioP2
18399;SDS011;9326;49.468;11.008;2023-05-10T05:02:10;0.60;;;0.60;;
18399;SDS011;9326;49.468;11.008;2023-05-10T05:04:37;0.60;;;0.60;;
18399;SDS011;9326;49.468;11.008;2023-05-10T05:07:06;0.70;;;0.70;;
18399;SDS011;9326;49.468;11.008;2023-05-10T05:09:35;0.50;;;0.50;;
18399;SDS011;9326;49.468;11.008;2023-05-10T05:12:02;1.00;;;0.77;;
18399;SDS011;9326;49.468;11.008;2023-05-10T05:14:29;0.53;;;0.53;;
18399;SDS011;9326;49.468;11.008;2023-05-10T05:16:56;0.70;;;0.70;;
18399;SDS011;9326;49.468;11.008;2023-05-10T05:19:26;1.30;;;1.00;;
18399;SDS011;9326;49.468;11.008;2023-05-10T05:21:53;0.97;;;0.83;;
18399;SDS011;9326;49.468;11.008;2023-05-10T05:24:20;0.50;;;0.50;;
18399;SDS011;9326;49.468;11.008;2023-05-10T05:26:48;1.67;;;0.70;;
18399;SDS011;9326;49.468;11.008;2023-05-10T05:29:15;1.17;;;0.50;;
18399;SDS011;9326;49.468;11.008;2023-05-10T05:31:42;0.70;;;0.70;;
18399;SDS011;9326;49.468;11.008;2023-05-10T05:34:10;1.00;;;0.60;;
18399;SDS011;9326;49.468;11.008;2023-05-10T05:36:39;0.80;;;0.80;;
18399;SDS011;9326;49.468;11.008;2023-05-10T05:39:06;0.80;;;0.80;;
18399;SDS011;9326;49.468;11.008;2023-05-10T05:41:33;1.10;;;1.10;;
18399;SDS011;9326;49.468;11.008;2023-05-10T05:44:00;1.23;;;1.03;;
18399;SDS011;9326;49.468;11.008;2023-05-10T05:46:28;0.77;;;0.77;;
18399;SDS011;9326;49.468;11.008;2023-05-10T05:48:55;0.83;;;0.83;;
18399;SDS011;9326;49.468;11.008;2023-05-10T05:51:22;1.07;;;0.93;;
18399;SDS011;9326;49.468;11.008;2023-05-10T05:53:51;0.97;;;0.97;;
18399;SDS011;9326;49.468;11.008;2023-05-10T05:56:18;1.07;;;0.97;;
18399;SDS011;9326;49.468;11.008;2023-05-10T05:58:49;1.50;;;1.10;;
18399;SDS011;9326;49.468;11.008;2023-05-10T06:01:16;1.33;;;1.00;;
18399;SDS011;9326;49.468;11.008;2023-05-10T06:03:43;1.80;;;1.10;;
18399;SDS011;9326;49.468;11.008;2023-05-10T06:06:11;1.67;;;1.20;;
18399;SDS011;9326;49.468;11.008;2023-05-10T06:08:38;1.00;;;1.00;;
18399;SDS011;9326;49.468;11.008;2023-05-10T06:11:06;1.10;;;1.00;;
18399;SDS011;9326;49.468;11.008;2023-05-10T06:13:34;1.13;;;1.10;;
18399;SDS011;9326;49.468;11.008;2023-05-10T06:16:03;1.27;;;1.13;;
18399;SDS011;9326;49.468;11.008;2023-05-10T06:18:30;1.30;;;1.20;;
18399;SDS011;9326;49.468;11.008;2023-05-10T06:20:57;1.03;;;1.03;;
18399;SDS011;9326;49.468;11.008;2023-05-10T06:23:25;1.47;;;1.20;;
18399;SDS011;9326;49.468;11.008;2023-05-10T06:25:52;1.17;;;1.17;;
18399;SDS011;9326;49.468;11.008;2023-05-10T06:28:21;1.90;;;1.03;;
18399;SDS011;9326;49.468;11.008;2023-05-10T06:30:51;1.43;;;1.20;;
18399;SDS011;9326;49.468;11.008;2023-05-10T06:33:18;1.30;;;1.20;;
18399;SDS011;9326;49.468;11.008;2023-05-10T06:35:45;1.27;;;1.17;;
18399;SDS011;9326;49.468;11.008;2023-05-10T06:38:12;1.10;;;1.00;;
18399;SDS011;9326;49.468;11.008;2023-05-10T06:40:40;1.30;;;1.20;;
18399;SDS011;9326;49.468;11.008;2023-05-10T06:43:08;1.10;;;1.10;;
18399;SDS011;9326;49.468;11.008;2023-05-10T06:45:36;1.10;;;1.10;;
18399;SDS011;9326;49.468;11.008;2023-05-10T06:48:06;1.20;;;1.10;;
18399;SDS011;9326;49.468;11.008;2023-05-10T06:50:36;1.17;;;1.17;;
18399;SDS011;9326;49.468;11.008;2023-05-10T06:53:03;1.37;;;0.93;;
18399;SDS011;9326;49.468;11.008;2023-05-10T06:55:31;1.07;;;1.00;;
18399;SDS011;9326;49.468;11.008;2023-05-10T06:57:58;1.87;;;1.10;;
18399;SDS011;9326;49.468;11.008;2023-05-10T07:00:25;1.87;;;1.00;;
18399;SDS011;9326;49.468;11.008;2023-05-10T07:02:54;1.70;;;1.20;;
18399;SDS011;9326;49.468;11.008;2023-05-10T07:05:23;2.33;;;1.03;;
18399;SDS011;9326;49.468;11.008;2023-05-10T07:07:52;1.53;;;1.10;;
18399;SDS011;9326;49.468;11.008;2023-05-10T07:10:19;0.90;;;0.90;;
18399;SDS011;9326;49.468;11.008;2023-05-10T07:12:47;0.87;;;0.87;;
18399;SDS011;9326;49.468;11.008;2023-05-10T07:15:14;1.13;;;1.03;;
18399;SDS011;9326;49.468;11.008;2023-05-10T07:17:42;1.27;;;0.90;;
18399;SDS011;9326;49.468;11.008;2023-05-10T07:20:10;1.10;;;0.93;;
18399;SDS011;9326;49.468;11.008;2023-05-10T07:22:38;1.17;;;1.03;;
18399;SDS011;9326;49.468;11.008;2023-05-10T07:25:06;2.20;;;1.10;;
18399;SDS011;9326;49.468;11.008;2023-05-10T07:27:33;1.10;;;1.10;;
18399;SDS011;9326;49.468;11.008;2023-05-10T07:30:00;1.60;;;0.90;;
18399;SDS011;9326;49.468;11.008;2023-05-10T07:32:27;1.53;;;1.13;;
18399;SDS011;9326;49.468;11.008;2023-05-10T07:34:54;1.20;;;1.10;;
18399;SDS011;9326;49.468;11.008;2023-05-10T07:37:23;2.27;;;1.10;;
18399;SDS011;9326;49.468;11.008;2023-05-10T07:39:50;0.70;;;0.70;;
18399;SDS011;9326;49.468;11.008;2023-05-10T07:42:19;1.10;;;1.00;;
18399;SDS011;9326;49.468;11.008;2023-05-10T07:44:46;3.40;;;1.57;;
18399;SDS011;9326;49.468;11.008;2023-05-10T07:47:13;1.87;;;1.10;;
18399;SDS011;9326;49.468;11.008;2023-05-10T07:49:40;2.50;;;1.17;;
18399;SDS011;9326;49.468;11.008;2023-05-10T07:52:08;3.70;;;1.40;;
18399;SDS011;9326;49.468;11.008;2023-05-10T07:54:37;1.10;;;0.97;;
18399;SDS011;9326;49.468;11.008;2023-05-10T07:57:06;2.80;;;1.20;;
18399;SDS011;9326;49.468;11.008;2023-05-10T07:59:33;1.67;;;1.30;;
18399;SDS011;9326;49.468;11.008;2023-05-10T08:02:01;1.93;;;1.20;;
18399;SDS011;9326;49.468;11.008;2023-05-10T08:04:28;1.20;;;1.10;;
18399;SDS011;9326;49.468;11.008;2023-05-10T08:06:55;1.93;;;1.00;;
18399;SDS011;9326;49.468;11.008;2023-05-10T08:09:22;1.63;;;1.00;;
18399;SDS011;9326;49.468;11.008;2023-05-10T08:11:51;1.80;;;1.30;;
18399;SDS011;9326;49.468;11.008;2023-05-10T08:14:18;1.20;;;1.10;;
18399;SDS011;9326;49.468;11.008;2023-05-10T08:16:45;3.70;;;1.43;;
18399;SDS011;9326;49.468;11.008;2023-05-10T08:19:12;5.23;;;1.90;;
18399;SDS011;9326;49.468;11.008;2023-05-10T08:21:39;1.53;;;1.20;;
18399;SDS011;9326;49.468;11.008;2023-05-10T08:24:07;14.47;;;2.87;;
18399;SDS011;9326;49.468;11.008;2023-05-10T08:26:34;4.33;;;1.90;;
18399;SDS011;9326;49.468;11.008;2023-05-10T08:29:03;1.27;;;1.17;;
18399;SDS011;9326;49.468;11.008;2023-05-10T08:31:30;1.40;;;1.30;;
18399;SDS011;9326;49.468;11.008;2023-05-10T08:33:57;1.50;;;1.30;;
18399;SDS011;9326;49.468;11.008;2023-05-10T08:36:25;1.30;;;1.20;;
18399;SDS011;9326;49.468;11.008;2023-05-10T08:38:52;2.20;;;1.17;;
18399;SDS011;9326;49.468;11.008;2023-05-10T08:41:20;4.00;;;1.03;;
18399;SDS011;9326;49.468;11.008;2023-05-10T08:43:49;2.27;;;1.20;;
18399;SDS011;9326;49.468;11.008;2023-05-10T08:46:19;1.50;;;1.40;;
18399;SDS011;9326;49.468;11.008;2023-05-10T08:48:47;2.40;;;0.87;;
18399;SDS011;9326;49.468;11.008;2023-05-10T08:51:14;1.50;;;1.23;;
18399;SDS011;9326;49.468;11.008;2023-05-10T08:53:42;1.00;;;1.00;;
18399;SDS011;9326;49.468;11.008;2023-05-10T08:56:10;1.20;;;1.10;;
18399;SDS011;9326;49.468;11.008;2023-05-10T08:58:37;1.17;;;1.10;;
18399;SDS011;9326;49.468;11.008;2023-05-10T09:01:10;3.03;;;1.40;;
18399;SDS011;9326;49.468;11.008;2023-05-10T09:09:35;2.73;;;1.77;;
18399;SDS011;9326;49.468;11.008;2023-05-10T09:12:03;1.73;;;1.60;;
18399;SDS011;9326;49.468;11.008;2023-05-10T09:14:38;2.53;;;1.53;;
18399;SDS011;9326;49.468;11.008;2023-05-10T09:17:08;2.07;;;1.90;;
18399;SDS011;9326;49.468;11.008;2023-05-10T09:19:36;1.83;;;1.73;;
18399;SDS011;9326;49.468;11.008;2023-05-10T09:22:03;1.90;;;1.80;;
18399;SDS011;9326;49.468;11.008;2023-05-10T09:24:30;1.83;;;1.70;;
18399;SDS011;9326;49.468;11.008;2023-05-10T09:26:59;2.33;;;1.87;;
18399;SDS011;9326;49.468;11.008;2023-05-10T09:29:26;2.00;;;1.90;;
18399;SDS011;9326;49.468;11.008;2023-05-10T09:32:05;1.90;;;1.80;;
18399;SDS011;9326;49.468;11.008;2023-05-10T09:34:32;3.23;;;1.80;;
18399;SDS011;9326;49.468;11.008;2023-05-10T09:37:00;1.90;;;1.80;;
18399;SDS011;9326;49.468;11.008;2023-05-10T09:39:32;2.27;;;2.00;;
18399;SDS011;9326;49.468;11.008;2023-05-10T09:42:01;4.07;;;2.20;;
18399;SDS011;9326;49.468;11.008;2023-05-10T09:44:29;3.17;;;1.93;;
18399;SDS011;9326;49.468;11.008;2023-05-10T09:46:57;2.90;;;1.90;;
18399;SDS011;9326;49.468;11.008;2023-05-10T09:49:24;2.20;;;1.80;;
18399;SDS011;9326;49.468;11.008;2023-05-10T09:51:59;1.73;;;1.53;;
18399;SDS011;9326;49.468;11.008;2023-05-10T09:54:27;2.23;;;1.43;;
18399;SDS011;9326;49.468;11.008;2023-05-10T09:56:54;1.30;;;1.20;;
18399;SDS011;9326;49.468;11.008;2023-05-10T09:59:24;1.60;;;1.20;;
18399;SDS011;9326;49.468;11.008;2023-05-10T10:01:52;1.67;;;1.20;;
18399;SDS011;9326;49.468;11.008;2023-05-10T10:04:19;1.17;;;1.07;;
18399;SDS011;9326;49.468;11.008;2023-05-10T10:06:47;2.50;;;1.20;;
18399;SDS011;9326;49.468;11.008;2023-05-10T10:09:24;1.37;;;1.00;;
18399;SDS011;9326;49.468;11.008;2023-05-10T10:11:52;2.00;;;1.10;;
18399;SDS011;9326;49.468;11.008;2023-05-10T10:14:19;1.43;;;1.10;;
18399;SDS011;9326;49.468;11.008;2023-05-10T10:16:48;2.07;;;1.20;;
18399;SDS011;9326;49.468;11.008;2023-05-10T10:19:15;1.40;;;0.83;;
18399;SDS011;9326;49.468;11.008;2023-05-10T10:21:42;1.03;;;0.70;;
18399;SDS011;9326;49.468;11.008;2023-05-10T10:24:09;1.43;;;0.80;;
18399;SDS011;9326;49.468;11.008;2023-05-10T10:26:37;1.10;;;1.00;;
18399;SDS011;9326;49.468;11.008;2023-05-10T10:29:07;2.07;;;1.77;;
18399;SDS011;9326;49.468;11.008;2023-05-10T10:31:39;1.40;;;1.00;;
18399;SDS011;9326;49.468;11.008;2023-05-10T10:34:09;2.00;;;1.10;;
18399;SDS011;9326;49.468;11.008;2023-05-10T10:36:42;2.70;;;1.10;;
18399;SDS011;9326;49.468;11.008;2023-05-10T10:39:10;1.63;;;1.10;;
18399;SDS011;9326;49.468;11.008;2023-05-10T10:41:38;1.30;;;0.90;;
18399;SDS011;9326;49.468;11.008;2023-05-10T10:44:25;1.43;;;1.10;;
18399;SDS011;9326;49.468;11.008;2023-05-10T10:46:59;1.20;;;1.07;;
18399;SDS011;9326;49.468;11.008;2023-05-10T10:49:30;1.40;;;1.27;;
18399;SDS011;9326;49.468;11.008;2023-05-10T10:52:13;1.33;;;1.23;;
18399;SDS011;9326;49.468;11.008;2023-05-10T10:54:41;1.07;;;0.90;;
18399;SDS011;9326;49.468;11.008;2023-05-10T10:57:11;2.50;;;1.00;;
18399;SDS011;9326;49.468;11.008;2023-05-10T10:59:41;1.90;;;1.10;;
18399;SDS011;9326;49.468;11.008;2023-05-10T11:02:09;1.13;;;1.03;;
18399;SDS011;9326;49.468;11.008;2023-05-10T11:04:43;0.80;;;0.80;;
18399;SDS011;9326;49.468;11.008;2023-05-10T11:07:17;1.10;;;1.00;;
18399;SDS011;9326;49.468;11.008;2023-05-10T11:09:46;1.80;;;1.07;;
18399;SDS011;9326;49.468;11.008;2023-05-10T11:12:13;1.63;;;1.00;;
18399;SDS011;9326;49.468;11.008;2023-05-10T11:14:40;2.50;;;1.20;;
18399;SDS011;9326;49.468;11.008;2023-05-10T11:20:04;2.30;;;1.03;;
18399;SDS011;9326;49.468;11.008;2023-05-10T11:25:15;1.53;;;1.20;;
18399;SDS011;9326;49.468;11.008;2023-05-10T11:27:42;2.83;;;1.33;;
18399;SDS011;9326;49.468;11.008;2023-05-10T11:30:10;1.27;;;1.10;;
18399;SDS011;9326;49.468;11.008;2023-05-10T11:32:37;1.63;;;1.30;;
18399;SDS011;9326;49.468;11.008;2023-05-10T11:35:09;1.40;;;1.20;;
18399;SDS011;9326;49.468;11.008;2023-05-10T11:37:37;1.90;;;1.10;;
18399;SDS011;9326;49.468;11.008;2023-05-10T11:40:11;1.30;;;1.20;;
18399;SDS011;9326;49.468;11.008;2023-05-10T11:42:42;2.07;;;1.30;;
18399;SDS011;9326;49.468;11.008;2023-05-10T11:45:10;2.60;;;1.20;;
18399;SDS011;9326;49.468;11.008;2023-05-10T11:47:37;1.60;;;1.00;;
18399;SDS011;9326;49.468;11.008;2023-05-10T11:50:07;1.00;;;1.00;;
18399;SDS011;9326;49.468;11.008;2023-05-10T11:52:36;1.30;;;1.20;;
18399;SDS011;9326;49.468;11.008;2023-05-10T11:55:04;1.40;;;1.30;;
18399;SDS011;9326;49.468;11.008;2023-05-10T11:57:31;1.53;;;1.33;;
18399;SDS011;9326;49.468;11.008;2023-05-10T11:59:58;1.73;;;1.00;;
18399;SDS011;9326;49.468;11.008;2023-05-10T12:02:26;1.07;;;0.93;;
18399;SDS011;9326;49.468;11.008;2023-05-10T12:04:54;1.07;;;1.00;;
18399;SDS011;9326;49.468;11.008;2023-05-10T12:07:21;1.70;;;1.60;;
18399;SDS011;9326;49.468;11.008;2023-05-10T12:12:43;0.80;;;0.80;;
18399;SDS011;9326;49.468;11.008;2023-05-10T12:15:10;1.20;;;1.10;;
18399;SDS011;9326;49.468;11.008;2023-05-10T12:17:38;2.67;;;0.90;;
18399;SDS011;9326;49.468;11.008;2023-05-10T12:20:18;1.60;;;1.10;;
18399;SDS011;9326;49.468;11.008;2023-05-10T12:22:46;1.80;;;1.20;;
18399;SDS011;9326;49.468;11.008;2023-05-10T12:25:14;1.37;;;1.30;;
18399;SDS011;9326;49.468;11.008;2023-05-10T12:27:48;1.60;;;1.00;;
18399;SDS011;9326;49.468;11.008;2023-05-10T12:30:18;1.17;;;1.03;;
18399;SDS011;9326;49.468;11.008;2023-05-10T12:32:46;1.10;;;1.10;;
18399;SDS011;9326;49.468;11.008;2023-05-10T12:35:13;2.00;;;1.00;;
18399;SDS011;9326;49.468;11.008;2023-05-10T12:37:41;0.80;;;0.80;;
18399;SDS011;9326;49.468;11.008;2023-05-10T12:40:09;1.40;;;0.80;;
18399;SDS011;9326;49.468;11.008;2023-05-10T12:42:37;0.80;;;0.70;;
18399;SDS011;9326;49.468;11.008;2023-05-10T12:45:07;1.17;;;0.70;;
18399;SDS011;9326;49.468;11.008;2023-05-10T12:47:34;2.57;;;1.00;;
18399;SDS011;9326;49.468;11.008;2023-05-10T12:50:02;3.30;;;1.00;;
18399;SDS011;9326;49.468;11.008;2023-05-10T12:52:31;0.60;;;0.60;;
18399;SDS011;9326;49.468;11.008;2023-05-10T12:54:58;0.70;;;0.70;;
18399;SDS011;9326;49.468;11.008;2023-05-10T12:57:26;2.30;;;0.90;;
18399;SDS011;9326;49.468;11.008;2023-05-10T12:59:53;0.80;;;0.77;;
18399;SDS011;9326;49.468;11.008;2023-05-10T13:02:21;1.83;;;1.20;;
18399;SDS011;9326;49.468;11.008;2023-05-10T13:04:49;1.20;;;1.10;;
18399;SDS011;9326;49.468;11.008;2023-05-10T13:07:16;1.33;;;1.33;;
18399;SDS011;9326;49.468;11.008;2023-05-10T13:09:44;0.90;;;0.90;;
18399;SDS011;9326;49.468;11.008;2023-05-10T13:12:11;1.30;;;1.20;;
18399;SDS011;9326;49.468;11.008;2023-05-10T13:14:38;1.83;;;1.10;;
18399;SDS011;9326;49.468;11.008;2023-05-10T13:17:07;1.30;;;1.20;;
18399;SDS011;9326;49.468;11.008;2023-05-10T13:19:36;1.70;;;1.10;;
18399;SDS011;9326;49.468;11.008;2023-05-10T13:22:03;1.53;;;1.40;;
18399;SDS011;9326;49.468;11.008;2023-05-10T13:24:30;1.63;;;1.40;;
18399;SDS011;9326;49.468;11.008;2023-05-10T13:26:57;1.47;;;1.27;;
18399;SDS011;9326;49.468;11.008;2023-05-10T13:29:24;1.97;;;1.40;;
18399;SDS011;9326;49.468;11.008;2023-05-10T13:31:52;3.20;;;1.90;;
18399;SDS011;9326;49.468;11.008;2023-05-10T13:34:19;1.60;;;1.50;;
18399;SDS011;9326;49.468;11.008;2023-05-10T13:36:48;1.90;;;1.80;;
18399;SDS011;9326;49.468;11.008;2023-05-10T13:39:15;2.20;;;1.70;;
18399;SDS011;9326;49.468;11.008;2023-05-10T13:41:42;2.30;;;1.73;;
18399;SDS011;9326;49.468;11.008;2023-05-10T13:44:11;2.40;;;1.80;;
18399;SDS011;9326;49.468;11.008;2023-05-10T13:46:38;2.10;;;1.60;;
18399;SDS011;9326;49.468;11.008;2023-05-10T13:49:05;1.30;;;1.20;;
18399;SDS011;9326;49.468;11.008;2023-05-10T13:51:33;1.30;;;1.20;;
18399;SDS011;9326;49.468;11.008;2023-05-10T13:54:02;1.73;;;1.10;;
18399;SDS011;9326;49.468;11.008;2023-05-10T13:56:29;1.03;;;0.83;;
18399;SDS011;9326;49.468;11.008;2023-05-10T13:58:56;0.90;;;0.90;;
18399;SDS011;9326;49.468;11.008;2023-05-10T14:01:23;1.17;;;0.90;;
18399;SDS011;9326;49.468;11.008;2023-05-10T14:03:50;1.37;;;0.83;;
18399;SDS011;9326;49.468;11.008;2023-05-10T14:06:17;1.00;;;0.90;;
18399;SDS011;9326;49.468;11.008;2023-05-10T14:08:44;1.53;;;0.90;;
18399;SDS011;9326;49.468;11.008;2023-05-10T14:11:14;0.90;;;0.90;;
18399;SDS011;9326;49.468;11.008;2023-05-10T14:13:41;1.23;;;0.90;;
18399;SDS011;9326;49.468;11.008;2023-05-10T14:16:08;1.10;;;1.00;;
18399;SDS011;9326;49.468;11.008;2023-05-10T14:18:35;2.67;;;1.07;;
18399;SDS011;9326;49.468;11.008;2023-05-10T14:21:02;1.00;;;0.90;;
18399;SDS011;9326;49.468;11.008;2023-05-10T14:23:30;1.13;;;0.80;;
18399;SDS011;9326;49.468;11.008;2023-05-10T14:25:57;0.90;;;0.90;;
18399;SDS011;9326;49.468;11.008;2023-05-10T14:28:25;0.90;;;0.90;;
18399;SDS011;9326;49.468;11.008;2023-05-10T14:30:52;0.93;;;0.93;;
18399;SDS011;9326;49.468;11.008;2023-05-10T14:33:19;0.90;;;0.90;;
18399;SDS011;9326;49.468;11.008;2023-05-10T14:35:46;0.90;;;0.90;;
18399;SDS011;9326;49.468;11.008;2023-05-10T14:38:14;1.50;;;0.97;;
18399;SDS011;9326;49.468;11.008;2023-05-10T14:40:41;1.00;;;1.00;;
18399;SDS011;9326;49.468;11.008;2023-05-10T14:43:08;0.90;;;0.90;;
18399;SDS011;9326;49.468;11.008;2023-05-10T14:45:36;1.20;;;1.07;;
18399;SDS011;9326;49.468;11.008;2023-05-10T14:48:03;1.13;;;0.70;;
18399;SDS011;9326;49.468;11.008;2023-05-10T14:50:31;2.33;;;1.27;;
18399;SDS011;9326;49.468;11.008;2023-05-10T14:52:58;1.40;;;1.30;;
18399;SDS011;9326;49.468;11.008;2023-05-10T14:55:25;1.23;;;1.17;;
18399;SDS011;9326;49.468;11.008;2023-05-10T14:57:52;1.77;;;1.20;;
18399;SDS011;9326;49.468;11.008;2023-05-10T15:00:19;1.37;;;1.20;;
18399;SDS011;9326;49.468;11.008;2023-05-10T15:02:48;2.17;;;1.10;;
18399;SDS011;9326;49.468;11.008;2023-05-10T15:05:15;1.33;;;1.07;;
18399;SDS011;9326;49.468;11.008;2023-05-10T15:07:42;0.73;;;0.73;;
18399;SDS011;9326;49.468;11.008;2023-05-10T15:10:09;0.70;;;0.70;;
18399;SDS011;9326;49.468;11.008;2023-05-10T15:12:37;0.60;;;0.60;;
18399;SDS011;9326;49.468;11.008;2023-05-10T15:15:04;1.23;;;0.60;;
18399;SDS011;9326;49.468;11.008;2023-05-10T15:17:32;0.77;;;0.43;;
18399;SDS011;9326;49.468;11.008;2023-05-10T15:20:00;1.20;;;0.60;;
18399;SDS011;9326;49.468;11.008;2023-05-10T15:22:28;0.60;;;0.40;;
18399;SDS011;9326;49.468;11.008;2023-05-10T15:24:56;0.53;;;0.50;;
18399;SDS011;9326;49.468;11.008;2023-05-10T15:27:23;0.60;;;0.60;;
18399;SDS011;9326;49.468;11.008;2023-05-10T15:29:50;1.20;;;1.00;;
18399;SDS011;9326;49.468;11.008;2023-05-10T15:32:17;0.90;;;0.57;;
18399;SDS011;9326;49.468;11.008;2023-05-10T15:34:44;0.50;;;0.50;;
18399;SDS011;9326;49.468;11.008;2023-05-10T15:37:13;0.60;;;0.60;;
18399;SDS011;9326;49.468;11.008;2023-05-10T15:39:40;1.17;;;0.60;;
18399;SDS011;9326;49.468;11.008;2023-05-10T15:42:07;1.37;;;0.60;;
18399;SDS011;9326;49.468;11.008;2023-05-10T15:44:34;0.70;;;0.70;;
18399;SDS011;9326;49.468;11.008;2023-05-10T15:47:03;1.53;;;0.70;;
18399;SDS011;9326;49.468;11.008;2023-05-10T15:49:30;0.90;;;0.80;;
18399;SDS011;9326;49.468;11.008;2023-05-10T15:51:58;2.33;;;0.73;;
18399;SDS011;9326;49.468;11.008;2023-05-10T15:54:27;0.63;;;0.63;;
18399;SDS011;9326;49.468;11.008;2023-05-10T15:56:54;0.90;;;0.90;;
18399;SDS011;9326;49.468;11.008;2023-05-10T15:59:22;2.43;;;1.00;;
18399;SDS011;9326;49.468;11.008;2023-05-10T16:01:49;1.37;;;1.03;;
18399;SDS011;9326;49.468;11.008;2023-05-10T16:04:16;1.60;;;1.10;;
18399;SDS011;9326;49.468;11.008;2023-05-10T16:06:43;1.10;;;1.10;;
18399;SDS011;9326;49.468;11.008;2023-05-10T16:09:10;1.40;;;1.30;;
18399;SDS011;9326;49.468;11.008;2023-05-10T16:11:38;1.60;;;1.20;;
18399;SDS011;9326;49.468;11.008;2023-05-10T16:14:06;1.50;;;1.40;;
18399;SDS011;9326;49.468;11.008;2023-05-10T16:16:33;4.37;;;1.30;;
18399;SDS011;9326;49.468;11.008;2023-05-10T16:19:00;1.33;;;1.10;;
18399;SDS011;9326;49.468;11.008;2023-05-10T16:21:28;1.40;;;1.30;;
18399;SDS011;9326;49.468;11.008;2023-05-10T16:23:56;1.77;;;1.40;;
18399;SDS011;9326;49.468;11.008;2023-05-10T16:26:23;1.10;;;1.10;;
18399;SDS011;9326;49.468;11.008;2023-05-10T16:28:52;1.60;;;1.50;;
18399;SDS011;9326;49.468;11.008;2023-05-10T16:31:19;1.57;;;1.47;;
18399;SDS011;9326;49.468;11.008;2023-05-10T16:33:47;1.67;;;1.50;;
18399;SDS011;9326;49.468;11.008;2023-05-10T16:36:14;1.73;;;1.63;;
18399;SDS011;9326;49.468;11.008;2023-05-10T16:38:41;2.07;;;1.60;;
18399;SDS011;9326;49.468;11.008;2023-05-10T16:41:08;1.90;;;1.80;;
18399;SDS011;9326;49.468;11.008;2023-05-10T16:43:35;1.17;;;1.17;;
18399;SDS011;9326;49.468;11.008;2023-05-10T16:46:09;2.57;;;1.37;;
18399;SDS011;9326;49.468;11.008;2023-05-10T16:48:36;1.63;;;1.53;;
18399;SDS011;9326;49.468;11.008;2023-05-10T16:51:03;2.97;;;1.60;;
18399;SDS011;9326;49.468;11.008;2023-05-10T16:53:31;1.37;;;1.23;;
18399;SDS011;9326;49.468;11.008;2023-05-10T16:55:58;1.97;;;1.60;;
18399;SDS011;9326;49.468;11.008;2023-05-10T16:58:25;4.13;;;1.60;;
18399;SDS011;9326;49.468;11.008;2023-05-10T17:00:52;3.00;;;1.50;;
18399;SDS011;9326;49.468;11.008;2023-05-10T17:03:20;2.13;;;1.30;;
18399;SDS011;9326;49.468;11.008;2023-05-10T17:05:47;2.93;;;2.70;;
18399;SDS011;9326;49.468;11.008;2023-05-10T17:08:15;1.70;;;1.60;;
18399;SDS011;9326;49.468;11.008;2023-05-10T17:10:42;1.97;;;1.40;;
18399;SDS011;9326;49.468;11.008;2023-05-10T17:13:09;2.00;;;1.50;;
18399;SDS011;9326;49.468;11.008;2023-05-10T17:15:36;1.40;;;1.30;;
18399;SDS011;9326;49.468;11.008;2023-05-10T17:18:03;3.93;;;1.30;;
18399;SDS011;9326;49.468;11.008;2023-05-10T17:20:32;2.13;;;1.40;;
18399;SDS011;9326;49.468;11.008;2023-05-10T17:22:59;1.73;;;1.20;;
18399;SDS011;9326;49.468;11.008;2023-05-10T17:25:27;1.53;;;1.30;;
18399;SDS011;9326;49.468;11.008;2023-05-10T17:27:54;1.57;;;1.47;;
18399;SDS011;9326;49.468;11.008;2023-05-10T17:30:21;3.07;;;1.50;;
18399;SDS011;9326;49.468;11.008;2023-05-10T17:32:51;1.40;;;1.30;;
18399;SDS011;9326;49.468;11.008;2023-05-10T17:35:18;1.70;;;1.60;;
18399;SDS011;9326;49.468;11.008;2023-05-10T17:37:47;1.67;;;1.57;;
18399;SDS011;9326;49.468;11.008;2023-05-10T17:40:14;3.73;;;2.90;;
18399;SDS011;9326;49.468;11.008;2023-05-10T17:42:41;1.80;;;1.70;;
18399;SDS011;9326;49.468;11.008;2023-05-10T17:45:09;3.77;;;3.47;;
18399;SDS011;9326;49.468;11.008;2023-05-10T17:47:36;2.40;;;2.07;;
18399;SDS011;9326;49.468;11.008;2023-05-10T17:50:03;3.23;;;2.80;;
18399;SDS011;9326;49.468;11.008;2023-05-10T17:52:31;2.00;;;1.50;;
18399;SDS011;9326;49.468;11.008;2023-05-10T17:54:59;1.83;;;1.37;;
18399;SDS011;9326;49.468;11.008;2023-05-10T17:57:27;1.53;;;1.43;;
18399;SDS011;9326;49.468;11.008;2023-05-10T17:59:54;2.83;;;2.03;;
18399;SDS011;9326;49.468;11.008;2023-05-10T18:02:21;1.70;;;1.60;;
18399;SDS011;9326;49.468;11.008;2023-05-10T18:04:48;2.23;;;1.60;;
18399;SDS011;9326;49.468;11.008;2023-05-10T18:07:15;1.70;;;1.60;;
18399;SDS011;9326;49.468;11.008;2023-05-10T18:09:42;1.60;;;1.50;;
18399;SDS011;9326;49.468;11.008;2023-05-10T18:12:11;1.60;;;1.50;;
18399;SDS011;9326;49.468;11.008;2023-05-10T18:14:38;2.33;;;1.80;;
18399;SDS011;9326;49.468;11.008;2023-05-10T18:17:05;2.57;;;1.97;;
18399;SDS011;9326;49.468;11.008;2023-05-10T18:19:32;2.60;;;1.80;;
18399;SDS011;9326;49.468;11.008;2023-05-10T18:21:59;2.20;;;1.80;;
18399;SDS011;9326;49.468;11.008;2023-05-10T18:24:26;2.40;;;1.77;;
18399;SDS011;9326;49.468;11.008;2023-05-10T18:26:54;2.70;;;1.80;;
18399;SDS011;9326;49.468;11.008;2023-05-10T18:29:24;2.80;;;2.00;;
18399;SDS011;9326;49.468;11.008;2023-05-10T18:31:51;2.20;;;2.00;;
18399;SDS011;9326;49.468;11.008;2023-05-10T18:34:18;2.07;;;1.87;;
18399;SDS011;9326;49.468;11.008;2023-05-10T18:36:45;2.47;;;1.90;;
18399;SDS011;9326;49.468;11.008;2023-05-10T18:39:12;2.27;;;2.10;;
18399;SDS011;9326;49.468;11.008;2023-05-10T18:41:42;2.53;;;1.83;;
18399;SDS011;9326;49.468;11.008;2023-05-10T18:44:09;2.37;;;2.13;;
18399;SDS011;9326;49.468;11.008;2023-05-10T18:46:38;2.43;;;2.10;;
18399;SDS011;9326;49.468;11.008;2023-05-10T18:49:06;2.67;;;2.37;;
18399;SDS011;9326;49.468;11.008;2023-05-10T18:51:33;2.60;;;2.40;;
18399;SDS011;9326;49.468;11.008;2023-05-10T18:54:00;3.47;;;2.50;;
18399;SDS011;9326;49.468;11.008;2023-05-10T18:56:28;4.37;;;2.33;;
18399;SDS011;9326;49.468;11.008;2023-05-10T18:58:55;2.80;;;2.30;;
18399;SDS011;9326;49.468;11.008;2023-05-10T19:01:22;2.87;;;2.53;;
18399;SDS011;9326;49.468;11.008;2023-05-10T19:03:50;3.13;;;2.33;;
18399;SDS011;9326;49.468;11.008;2023-05-10T19:06:17;3.17;;;2.30;;
18399;SDS011;9326;49.468;11.008;2023-05-10T19:08:44;2.83;;;2.37;;
18399;SDS011;9326;49.468;11.008;2023-05-10T19:11:11;2.73;;;2.43;;
18399;SDS011;9326;49.468;11.008;2023-05-10T19:13:39;3.93;;;2.50;;
18399;SDS011;9326;49.468;11.008;2023-05-10T19:16:09;3.93;;;2.33;;
18399;SDS011;9326;49.468;11.008;2023-05-10T19:18:37;3.00;;;2.70;;
18399;SDS011;9326;49.468;11.008;2023-05-10T19:21:05;2.40;;;2.20;;
18399;SDS011;9326;49.468;11.008;2023-05-10T19:23:34;2.90;;;2.67;;
18399;SDS011;9326;49.468;11.008;2023-05-10T19:26:02;3.97;;;2.80;;
18399;SDS011;9326;49.468;11.008;2023-05-10T19:28:29;4.33;;;2.60;;
18399;SDS011;9326;49.468;11.008;2023-05-10T19:30:56;2.60;;;2.40;;
18399;SDS011;9326;49.468;11.008;2023-05-10T19:33:23;3.13;;;2.80;;
18399;SDS011;9326;49.468;11.008;2023-05-10T19:35:50;2.93;;;2.73;;
18399;SDS011;9326;49.468;11.008;2023-05-10T19:38:19;3.23;;;2.97;;
18399;SDS011;9326;49.468;11.008;2023-05-10T19:40:47;2.97;;;2.60;;
18399;SDS011;9326;49.468;11.008;2023-05-10T19:43:14;3.00;;;2.70;;
18399;SDS011;9326;49.468;11.008;2023-05-10T19:45:41;3.83;;;2.50;;
18399;SDS011;9326;49.468;11.008;2023-05-10T19:48:08;2.97;;;2.77;;
18399;SDS011;9326;49.468;11.008;2023-05-10T19:50:36;2.80;;;2.60;;
18399;SDS011;9326;49.468;11.008;2023-05-10T19:53:03;2.60;;;2.40;;
18399;SDS011;9326;49.468;11.008;2023-05-10T19:55:31;2.90;;;2.70;;
18399;SDS011;9326;49.468;11.008;2023-05-10T19:58:00;3.00;;;2.70;;
18399;SDS011;9326;49.468;11.008;2023-05-10T20:00:27;2.90;;;2.60;;
18399;SDS011;9326;49.468;11.008;2023-05-10T20:02:55;3.37;;;3.10;;
18399;SDS011;9326;49.468;11.008;2023-05-10T20:05:23;3.83;;;3.20;;
18399;SDS011;9326;49.468;11.008;2023-05-10T20:07:50;3.40;;;3.10;;